Time;durP1;ratioP1;P1;durP2;ratioP2;P2;SDS_P1;SDS_P2;PMS_P1;PMS_P2;Temp;Humidity;BMP_temperature;BMP_pressure;BME280_temperature;BME280_humidity;BME280_pressure;Samples;Min_cycle;Max_cycle;Signal;HPM_P1;HPM_P2
2021/04/03 00:00:14;;;;;;;11.73;2.80;;;;;;;;;;5078992;28;20189;-69
2021/04/03 00:02:39;;;;;;;9.50;2.80;;;;;;;;;;5081733;28;20263;-68
2021/04/03 00:05:05;;;;;;;9.67;2.20;;;;;;;;;;5083360;28;20260;-68
2021/04/03 00:07:31;;;;;;;15.13;2.90;;;;;;;;;;5083478;28;20177;-68
2021/04/03 00:09:56;;;;;;;14.13;2.60;;;;;;;;;;5079334;28;20189;-68
2021/04/03 00:12:21;;;;;;;14.67;2.80;;;;;;;;;;5084060;28;20168;-68
2021/04/03 00:14:47;;;;;;;14.43;3.30;;;;;;;;;;5080767;28;20191;-69
2021/04/03 00:17:12;;;;;;;8.87;2.63;;;;;;;;;;5077956;28;20207;-68
2021/04/03 00:19:38;;;;;;;13.50;3.10;;;;;;;;;;5086206;28;20561;-69
2021/04/03 00:22:03;;;;;;;14.00;3.00;;;;;;;;;;5087443;28;20176;-69
2021/04/03 00:24:28;;;;;;;12.67;2.40;;;;;;;;;;5077994;28;20326;-68
2021/04/03 00:26:53;;;;;;;8.13;2.60;;;;;;;;;;5080722;28;20197;-69
2021/04/03 00:29:19;;;;;;;12.47;3.10;;;;;;;;;;5089381;28;20184;-69
2021/04/03 00:31:44;;;;;;;10.20;2.90;;;;;;;;;;5082060;28;20612;-69
2021/04/03 00:34:09;;;;;;;13.57;3.03;;;;;;;;;;5079692;28;20210;-68
2021/04/03 00:36:34;;;;;;;13.23;4.10;;;;;;;;;;5084475;28;20207;-68
2021/04/03 00:38:59;;;;;;;14.30;3.10;;;;;;;;;;5086115;28;20173;-69
2021/04/03 00:41:25;;;;;;;12.13;3.63;;;;;;;;;;5079433;28;20236;-69
2021/04/03 00:43:50;;;;;;;10.83;2.47;;;;;;;;;;5080990;28;20179;-69
2021/04/03 00:46:15;;;;;;;8.77;2.67;;;;;;;;;;5088020;28;20176;-68
2021/04/03 00:48:41;;;;;;;10.70;3.30;;;;;;;;;;5086400;28;20263;-69
2021/04/03 00:51:09;;;;;;;10.00;2.93;;;;;;;;;;5082027;28;20239;-68
2021/04/03 00:53:34;;;;;;;8.80;2.80;;;;;;;;;;5083003;28;20177;-68
2021/04/03 00:56:01;;;;;;;9.60;2.80;;;;;;;;;;5075367;28;20188;-68
2021/04/03 00:58:26;;;;;;;14.43;2.97;;;;;;;;;;5091270;28;20638;-69
2021/04/03 01:00:52;;;;;;;12.67;5.50;;;;;;;;;;5080842;28;20262;-68
2021/04/03 01:03:17;;;;;;;11.33;3.13;;;;;;;;;;5083853;28;20214;-68
2021/04/03 01:05:42;;;;;;;13.90;3.87;;;;;;;;;;5081016;28;20212;-69
2021/04/03 01:08:08;;;;;;;14.07;2.93;;;;;;;;;;5085104;28;20180;-68
2021/04/03 01:10:34;;;;;;;18.10;4.40;;;;;;;;;;5079040;28;20214;-68
2021/04/03 01:13:18;;;;;;;18.73;4.67;;;;;;;;;;5081576;28;20271;-69
2021/04/03 01:15:52;;;;;;;11.53;4.10;;;;;;;;;;5084606;28;20188;-69
2021/04/03 01:18:26;;;;;;;18.10;4.80;;;;;;;;;;5082842;28;20173;-68
2021/04/03 01:20:57;;;;;;;15.00;3.87;;;;;;;;;;5081072;28;20760;-69
2021/04/03 01:23:32;;;;;;;21.70;5.53;;;;;;;;;;5084211;28;20195;-67
2021/04/03 01:25:58;;;;;;;19.67;5.03;;;;;;;;;;5082519;28;20263;-68
2021/04/03 01:28:29;;;;;;;14.30;4.20;;;;;;;;;;5084923;28;20618;-69
2021/04/03 01:30:55;;;;;;;12.90;3.27;;;;;;;;;;5081905;28;20211;-69
2021/04/03 01:33:22;;;;;;;15.00;3.10;;;;;;;;;;5077637;28;20642;-69
2021/04/03 01:36:19;;;;;;;11.80;3.30;;;;;;;;;;5080449;28;20204;-69
2021/04/03 01:38:45;;;;;;;13.67;3.67;;;;;;;;;;5078186;28;20674;-69
2021/04/03 01:41:11;;;;;;;25.23;4.83;;;;;;;;;;5082534;28;20185;-69
2021/04/03 01:43:39;;;;;;;11.57;2.90;;;;;;;;;;5078609;28;20541;-68
2021/04/03 01:46:05;;;;;;;16.17;3.20;;;;;;;;;;5075163;28;20233;-68
2021/04/03 01:48:30;;;;;;;7.63;2.70;;;;;;;;;;5077773;28;20227;-69
2021/04/03 01:50:56;;;;;;;13.47;4.10;;;;;;;;;;5088295;28;20207;-68
2021/04/03 01:53:21;;;;;;;15.30;4.13;;;;;;;;;;5074924;28;20173;-68
2021/04/03 01:55:47;;;;;;;23.27;5.13;;;;;;;;;;5073460;28;20562;-68
2021/04/03 01:58:13;;;;;;;12.37;3.20;;;;;;;;;;5075656;28;20164;-69
2021/04/03 02:00:39;;;;;;;15.37;3.90;;;;;;;;;;5083017;28;20192;-68
2021/04/03 02:03:05;;;;;;;18.67;4.37;;;;;;;;;;5076316;28;20707;-69
2021/04/03 02:05:31;;;;;;;22.77;5.07;;;;;;;;;;5078966;28;20545;-69
2021/04/03 02:07:57;;;;;;;16.20;3.77;;;;;;;;;;5079415;28;20217;-68
2021/04/03 02:10:23;;;;;;;12.77;3.30;;;;;;;;;;5085367;28;20224;-69
2021/04/03 02:12:49;;;;;;;14.53;3.67;;;;;;;;;;5073062;28;20187;-68
2021/04/03 02:15:14;;;;;;;14.53;3.73;;;;;;;;;;5078817;28;20205;-69
2021/04/03 02:17:42;;;;;;;13.97;4.50;;;;;;;;;;5075303;28;20219;-69
2021/04/03 02:20:08;;;;;;;20.43;3.70;;;;;;;;;;5070674;28;20771;-69
2021/04/03 02:22:34;;;;;;;22.10;3.43;;;;;;;;;;5077415;28;20169;-68
2021/04/03 02:25:02;;;;;;;14.93;3.87;;;;;;;;;;5079169;28;20168;-68
2021/04/03 02:27:28;;;;;;;11.60;3.33;;;;;;;;;;5078584;28;20169;-68
2021/04/03 02:29:54;;;;;;;14.93;3.43;;;;;;;;;;5082146;28;20196;-67
2021/04/03 02:32:19;;;;;;;17.20;3.30;;;;;;;;;;5082754;28;20458;-68
2021/04/03 02:34:44;;;;;;;13.17;4.23;;;;;;;;;;5081888;28;20200;-68
2021/04/03 02:37:09;;;;;;;19.13;3.40;;;;;;;;;;5085768;28;20211;-68
2021/04/03 02:39:35;;;;;;;17.17;3.70;;;;;;;;;;5084256;28;20183;-67
2021/04/03 02:42:24;;;;;;;14.60;3.70;;;;;;;;;;5089629;28;20176;-67
2021/04/03 02:44:52;;;;;;;16.03;2.90;;;;;;;;;;5080989;28;20192;-67
2021/04/03 02:47:21;;;;;;;13.50;2.83;;;;;;;;;;5088494;28;20179;-67
2021/04/03 02:49:52;;;;;;;14.07;2.97;;;;;;;;;;5089276;28;20248;-68
2021/04/03 02:52:17;;;;;;;19.23;3.40;;;;;;;;;;5091471;28;20599;-67
2021/04/03 02:54:43;;;;;;;11.63;3.23;;;;;;;;;;5084380;28;20325;-68
2021/04/03 02:57:10;;;;;;;15.73;4.00;;;;;;;;;;5087983;28;20211;-67
2021/04/03 02:59:37;;;;;;;16.47;3.00;;;;;;;;;;5088631;28;20176;-67
2021/04/03 03:02:04;;;;;;;11.57;3.70;;;;;;;;;;5086835;28;20172;-68
2021/04/03 03:04:29;;;;;;;17.13;3.53;;;;;;;;;;5085126;28;20180;-68
2021/04/03 03:06:55;;;;;;;14.53;3.47;;;;;;;;;;5084839;28;20175;-67
2021/04/03 03:09:21;;;;;;;10.43;2.50;;;;;;;;;;5081907;28;20238;-68
2021/04/03 03:11:48;;;;;;;18.00;3.97;;;;;;;;;;5082135;28;20814;-67
2021/04/03 03:14:15;;;;;;;17.00;3.97;;;;;;;;;;5085293;28;20177;-68
2021/04/03 03:16:41;;;;;;;15.83;3.40;;;;;;;;;;5081825;28;20200;-68
2021/04/03 03:19:11;;;;;;;18.53;3.23;;;;;;;;;;5078672;28;20172;-68
2021/04/03 03:21:37;;;;;;;12.03;2.87;;;;;;;;;;5084502;28;20277;-68
2021/04/03 03:24:02;;;;;;;16.03;4.13;;;;;;;;;;5090124;28;20180;-68
2021/04/03 03:26:31;;;;;;;17.20;4.43;;;;;;;;;;5085256;28;20181;-68
2021/04/03 03:28:56;;;;;;;22.43;4.27;;;;;;;;;;5083670;28;20189;-68
2021/04/03 03:31:21;;;;;;;13.37;3.10;;;;;;;;;;5082212;28;20193;-68
2021/04/03 03:33:47;;;;;;;25.03;4.17;;;;;;;;;;5087174;28;20187;-68
2021/04/03 03:36:12;;;;;;;14.77;3.50;;;;;;;;;;5084391;28;20243;-68
2021/04/03 03:38:38;;;;;;;11.97;3.13;;;;;;;;;;5087786;28;20213;-68
2021/04/03 03:41:03;;;;;;;20.73;3.87;;;;;;;;;;5085413;28;20361;-68
2021/04/03 03:43:29;;;;;;;15.83;4.47;;;;;;;;;;5087353;28;20160;-67
2021/04/03 03:45:54;;;;;;;17.40;4.77;;;;;;;;;;5081776;28;20183;-68
2021/04/03 03:48:19;;;;;;;22.57;5.33;;;;;;;;;;5085220;28;20208;-68
2021/04/03 03:50:45;;;;;;;17.60;3.97;;;;;;;;;;5086828;28;20218;-68
2021/04/03 03:53:10;;;;;;;13.10;3.20;;;;;;;;;;5085828;28;20181;-68
2021/04/03 03:55:35;;;;;;;17.33;3.77;;;;;;;;;;5087244;28;20727;-68
2021/04/03 03:58:00;;;;;;;17.63;4.50;;;;;;;;;;5077886;28;20164;-68
2021/04/03 04:00:25;;;;;;;18.03;5.03;;;;;;;;;;5082042;28;20564;-68
2021/04/03 04:02:50;;;;;;;16.10;3.33;;;;;;;;;;5089352;28;20557;-67
2021/04/03 04:05:16;;;;;;;18.37;3.70;;;;;;;;;;5080144;28;20177;-67
2021/04/03 04:07:41;;;;;;;22.23;4.97;;;;;;;;;;5089566;28;20183;-68
2021/04/03 04:10:08;;;;;;;19.27;4.13;;;;;;;;;;5077418;28;20197;-68
2021/04/03 04:12:33;;;;;;;16.83;3.60;;;;;;;;;;5086527;28;20198;-68
2021/04/03 04:14:58;;;;;;;26.50;5.03;;;;;;;;;;5081631;28;20230;-68
2021/04/03 04:17:24;;;;;;;19.10;4.30;;;;;;;;;;5080789;28;20638;-67
2021/04/03 04:19:49;;;;;;;22.70;4.97;;;;;;;;;;5089752;28;20172;-68
2021/04/03 04:22:14;;;;;;;23.47;4.27;;;;;;;;;;5081316;28;20172;-67
2021/04/03 04:24:39;;;;;;;19.03;4.23;;;;;;;;;;5085739;28;20169;-68
2021/04/03 04:27:05;;;;;;;21.53;4.00;;;;;;;;;;5084149;28;20704;-68
2021/04/03 04:29:30;;;;;;;16.40;4.40;;;;;;;;;;5083349;28;20183;-67
2021/04/03 04:31:55;;;;;;;17.87;4.17;;;;;;;;;;5078943;28;20173;-68
2021/04/03 04:34:20;;;;;;;24.30;4.23;;;;;;;;;;5081960;28;20243;-67
2021/04/03 04:36:46;;;;;;;29.57;5.07;;;;;;;;;;5082985;28;20197;-68
2021/04/03 04:39:11;;;;;;;20.00;6.20;;;;;;;;;;5082225;28;20184;-67
2021/04/03 04:41:37;;;;;;;26.40;4.23;;;;;;;;;;5076745;28;20804;-67
2021/04/03 04:44:02;;;;;;;26.30;5.50;;;;;;;;;;5074242;28;20225;-67
2021/04/03 04:46:27;;;;;;;24.80;5.47;;;;;;;;;;5083688;28;20324;-68
2021/04/03 04:48:52;;;;;;;17.30;5.07;;;;;;;;;;5079776;28;20181;-67
2021/04/03 04:51:18;;;;;;;17.70;4.00;;;;;;;;;;5083048;28;20578;-68
2021/04/03 04:53:43;;;;;;;25.20;5.47;;;;;;;;;;5087640;28;20184;-68
2021/04/03 04:56:09;;;;;;;23.63;4.47;;;;;;;;;;5080817;28;20205;-68
2021/04/03 04:58:34;;;;;;;29.50;4.97;;;;;;;;;;5082540;28;20694;-68
2021/04/03 05:00:59;;;;;;;25.93;4.53;;;;;;;;;;5080708;28;20193;-67
2021/04/03 05:03:24;;;;;;;26.77;5.47;;;;;;;;;;5074858;28;20647;-67
2021/04/03 05:05:50;;;;;;;33.30;5.77;;;;;;;;;;5083431;28;20255;-68
2021/04/03 05:08:15;;;;;;;19.43;4.57;;;;;;;;;;5078904;28;20223;-67
2021/04/03 05:10:40;;;;;;;24.00;5.00;;;;;;;;;;5086036;28;20670;-69
2021/04/03 05:13:05;;;;;;;17.50;4.20;;;;;;;;;;5084448;28;20595;-68
2021/04/03 05:15:31;;;;;;;19.87;5.37;;;;;;;;;;5078170;28;20248;-69
2021/04/03 05:17:56;;;;;;;28.30;6.30;;;;;;;;;;5082988;28;20203;-69
2021/04/03 05:20:21;;;;;;;25.47;4.67;;;;;;;;;;5085045;28;20278;-69
2021/04/03 05:22:47;;;;;;;17.30;5.77;;;;;;;;;;5083427;28;20184;-69
2021/04/03 05:25:12;;;;;;;19.23;4.97;;;;;;;;;;5080195;28;20173;-69
2021/04/03 05:27:38;;;;;;;21.20;4.77;;;;;;;;;;5084287;28;20718;-69
2021/04/03 05:30:04;;;;;;;24.67;5.43;;;;;;;;;;5089793;28;20202;-69
2021/04/03 05:32:29;;;;;;;30.83;7.30;;;;;;;;;;5080698;28;20255;-68
2021/04/03 05:34:54;;;;;;;20.70;5.43;;;;;;;;;;5083602;28;20276;-69
2021/04/03 05:37:19;;;;;;;25.97;5.63;;;;;;;;;;5079370;28;20572;-69
2021/04/03 05:39:45;;;;;;;26.30;4.60;;;;;;;;;;5080146;28;20173;-69
2021/04/03 05:42:13;;;;;;;20.63;5.80;;;;;;;;;;5084157;28;20630;-69
2021/04/03 05:44:39;;;;;;;22.93;5.07;;;;;;;;;;5081210;28;20318;-69
2021/04/03 05:47:06;;;;;;;25.63;5.77;;;;;;;;;;5087752;28;20172;-68
2021/04/03 05:49:33;;;;;;;30.33;6.03;;;;;;;;;;5083525;28;20290;-68
2021/04/03 05:51:58;;;;;;;23.80;6.17;;;;;;;;;;5084438;28;20261;-69
2021/04/03 05:54:24;;;;;;;18.07;4.43;;;;;;;;;;5076104;28;20233;-69
2021/04/03 05:56:49;;;;;;;28.33;4.50;;;;;;;;;;5088790;28;20192;-69
2021/04/03 05:59:14;;;;;;;23.10;4.70;;;;;;;;;;5078043;28;20177;-69
2021/04/03 06:01:39;;;;;;;24.17;5.67;;;;;;;;;;5092600;28;20192;-68
2021/04/03 06:04:05;;;;;;;22.83;5.30;;;;;;;;;;5075377;28;20639;-69
2021/04/03 06:06:30;;;;;;;21.13;5.37;;;;;;;;;;5080233;28;20180;-70
2021/04/03 06:08:55;;;;;;;17.60;4.13;;;;;;;;;;5086516;28;20172;-69
2021/04/03 06:11:21;;;;;;;24.00;4.97;;;;;;;;;;5090506;28;20204;-70
2021/04/03 06:13:56;;;;;;;27.03;5.70;;;;;;;;;;5078852;28;20547;-69
2021/04/03 06:16:39;;;;;;;27.60;6.23;;;;;;;;;;5079207;28;20228;-68
2021/04/03 06:19:08;;;;;;;22.87;5.03;;;;;;;;;;5088784;28;20168;-68
2021/04/03 06:21:33;;;;;;;31.27;6.30;;;;;;;;;;5088124;28;20199;-69
2021/04/03 06:23:58;;;;;;;28.27;6.53;;;;;;;;;;5080418;28;20640;-68
2021/04/03 06:26:23;;;;;;;25.20;4.97;;;;;;;;;;5084927;28;20180;-69
2021/04/03 06:28:49;;;;;;;24.53;6.27;;;;;;;;;;5076776;28;20245;-67
2021/04/03 06:31:16;;;;;;;24.73;5.43;;;;;;;;;;5091071;28;20199;-67
2021/04/03 06:33:41;;;;;;;28.97;6.43;;;;;;;;;;5087159;28;20180;-68
2021/04/03 06:36:12;;;;;;;24.70;4.90;;;;;;;;;;5081766;28;20193;-69
2021/04/03 06:38:39;;;;;;;18.73;4.37;;;;;;;;;;5091611;28;20170;-69
2021/04/03 06:41:20;;;;;;;25.53;4.97;;;;;;;;;;5087068;28;20197;-68
2021/04/03 06:44:04;;;;;;;19.90;6.70;;;;;;;;;;5090987;28;20665;-68
2021/04/03 06:46:31;;;;;;;25.20;6.10;;;;;;;;;;5090441;28;20173;-68
2021/04/03 06:48:57;;;;;;;24.37;5.40;;;;;;;;;;5090832;28;20172;-68
2021/04/03 06:51:24;;;;;;;22.43;4.20;;;;;;;;;;5093588;28;20551;-69
2021/04/03 06:53:50;;;;;;;21.87;6.20;;;;;;;;;;5093273;28;20649;-68
2021/04/03 06:56:16;;;;;;;26.97;4.57;;;;;;;;;;5081097;28;20283;-69
2021/04/03 06:58:43;;;;;;;24.13;4.83;;;;;;;;;;5092784;28;20165;-68
2021/04/03 07:01:09;;;;;;;22.00;5.10;;;;;;;;;;5097797;28;20192;-68
2021/04/03 07:03:37;;;;;;;16.17;5.70;;;;;;;;;;5093582;28;20684;-68
2021/04/03 07:06:03;;;;;;;21.63;4.70;;;;;;;;;;5088183;28;20199;-68
2021/04/03 07:08:29;;;;;;;16.23;4.40;;;;;;;;;;5091049;28;20230;-68
2021/04/03 07:10:54;;;;;;;17.70;3.83;;;;;;;;;;5081670;28;20670;-69
2021/04/03 07:13:21;;;;;;;29.20;4.73;;;;;;;;;;5092737;28;20225;-69
2021/04/03 07:15:46;;;;;;;17.93;4.80;;;;;;;;;;5083115;28;20203;-68
2021/04/03 07:18:13;;;;;;;14.50;4.80;;;;;;;;;;5089407;28;20165;-69
2021/04/03 07:20:38;;;;;;;22.03;4.23;;;;;;;;;;5083546;28;20737;-68
2021/04/03 07:23:04;;;;;;;21.63;4.67;;;;;;;;;;5087501;28;20169;-68
2021/04/03 07:25:34;;;;;;;14.97;3.90;;;;;;;;;;5090783;28;20665;-68
2021/04/03 07:27:59;;;;;;;15.57;5.07;;;;;;;;;;5088704;28;20203;-67
2021/04/03 07:30:40;;;;;;;16.97;3.90;;;;;;;;;;5089283;28;20188;-68
2021/04/03 07:33:05;;;;;;;20.53;4.23;;;;;;;;;;5089878;28;20420;-68
2021/04/03 07:35:35;;;;;;;38.78;5.22;;;;;;;;;;5091336;28;20196;-68
2021/04/03 07:38:05;;;;;;;26.27;5.33;;;;;;;;;;5089466;28;20550;-69
2021/04/03 07:40:34;;;;;;;18.27;4.37;;;;;;;;;;5091954;28;20192;-68
2021/04/03 07:42:59;;;;;;;19.20;4.97;;;;;;;;;;5090423;28;20176;-68
2021/04/03 07:45:30;;;;;;;19.63;4.33;;;;;;;;;;5088330;28;20175;-67
2021/04/03 07:47:55;;;;;;;18.83;4.20;;;;;;;;;;5091057;28;20179;-67
2021/04/03 07:50:39;;;;;;;21.17;4.73;;;;;;;;;;5089327;28;20188;-67
2021/04/03 07:53:05;;;;;;;17.33;4.77;;;;;;;;;;5068184;28;20181;-67
2021/04/03 07:55:42;;;;;;;18.43;4.97;;;;;;;;;;5076165;28;20280;-68
2021/04/03 07:58:19;;;;;;;21.57;4.40;;;;;;;;;;5085608;28;20180;-67
2021/04/03 08:00:48;;;;;;;18.93;5.07;;;;;;;;;;5089628;28;20246;-69
2021/04/03 08:03:13;;;;;;;21.80;5.30;;;;;;;;;;5083830;28;20248;-69
2021/04/03 08:05:39;;;;;;;22.63;5.37;;;;;;;;;;5086445;28;20194;-69
2021/04/03 08:08:08;;;;;;;13.60;4.10;;;;;;;;;;5085100;28;20261;-68
2021/04/03 08:10:33;;;;;;;18.13;4.57;;;;;;;;;;5085001;28;20215;-67
2021/04/03 08:12:59;;;;;;;18.80;4.23;;;;;;;;;;5080457;28;20270;-67
2021/04/03 08:15:26;;;;;;;16.67;5.03;;;;;;;;;;5092744;28;20187;-67
2021/04/03 08:17:51;;;;;;;20.77;4.47;;;;;;;;;;5091253;28;20613;-67
2021/04/03 08:20:17;;;;;;;13.67;4.50;;;;;;;;;;5088225;28;20221;-68
2021/04/03 08:22:59;;;;;;;19.37;4.07;;;;;;;;;;5088377;28;20301;-68
2021/04/03 08:25:24;;;;;;;16.43;4.97;;;;;;;;;;5090354;28;20172;-68
2021/04/03 08:27:49;;;;;;;14.33;4.43;;;;;;;;;;5087033;28;20187;-68
2021/04/03 08:30:21;;;;;;;18.90;3.73;;;;;;;;;;5086451;28;20184;-69
2021/04/03 08:33:02;;;;;;;35.53;6.67;;;;;;;;;;5086085;28;20195;-68
2021/04/03 08:35:28;;;;;;;16.30;4.83;;;;;;;;;;5088622;28;20279;-68
2021/04/03 08:38:07;;;;;;;28.00;4.50;;;;;;;;;;5084480;28;20798;-68
2021/04/03 08:40:32;;;;;;;12.33;3.17;;;;;;;;;;5085610;28;20184;-67
2021/04/03 08:42:57;;;;;;;14.27;3.83;;;;;;;;;;5080396;28;20241;-67
2021/04/03 08:45:22;;;;;;;16.03;4.20;;;;;;;;;;5085462;28;20168;-67
2021/04/03 08:47:51;;;;;;;10.73;3.90;;;;;;;;;;5087738;28;20185;-69
2021/04/03 08:50:16;;;;;;;14.30;3.50;;;;;;;;;;5084145;28;20206;-69
2021/04/03 08:52:41;;;;;;;11.70;3.27;;;;;;;;;;5085498;28;20176;-68
2021/04/03 08:55:07;;;;;;;8.90;2.60;;;;;;;;;;5085545;28;20168;-68
2021/04/03 08:57:32;;;;;;;11.90;2.90;;;;;;;;;;5083350;28;20665;-68
2021/04/03 09:00:02;;;;;;;19.07;3.63;;;;;;;;;;5094359;28;20738;-69
2021/04/03 09:02:27;;;;;;;19.63;3.53;;;;;;;;;;5089141;28;20179;-69
2021/04/03 09:04:52;;;;;;;12.93;3.60;;;;;;;;;;5083771;28;20161;-69
2021/04/03 09:07:36;;;;;;;15.70;3.43;;;;;;;;;;5086786;28;20180;-68
2021/04/03 09:10:06;;;;;;;18.23;4.00;;;;;;;;;;5089013;28;20752;-68
2021/04/03 09:12:31;;;;;;;13.57;3.13;;;;;;;;;;5082891;28;20222;-68
2021/04/03 09:14:56;;;;;;;13.27;4.00;;;;;;;;;;5087800;28;20172;-69
2021/04/03 09:17:26;;;;;;;11.47;3.77;;;;;;;;;;5078727;28;20195;-69
2021/04/03 09:19:51;;;;;;;13.60;3.43;;;;;;;;;;5082120;28;20213;-68
2021/04/03 09:22:18;;;;;;;22.70;4.68;;;;;;;;;;5081203;28;20175;-69
2021/04/03 09:24:45;;;;;;;11.63;3.60;;;;;;;;;;5090695;28;20647;-68
2021/04/03 09:27:11;;;;;;;16.23;3.63;;;;;;;;;;5088964;28;20176;-67
2021/04/03 09:29:37;;;;;;;8.70;3.30;;;;;;;;;;5087583;28;20261;-67
2021/04/03 09:32:06;;;;;;;12.73;3.55;;;;;;;;;;5091329;28;20648;-67
2021/04/03 09:34:32;;;;;;;14.85;4.00;;;;;;;;;;5081114;28;20665;-68
2021/04/03 09:37:09;;;;;;;10.82;3.10;;;;;;;;;;5084100;28;20198;-66
2021/04/03 09:39:41;;;;;;;14.82;3.20;;;;;;;;;;5082389;28;20177;-68
2021/04/03 09:42:09;;;;;;;12.45;3.55;;;;;;;;;;5086024;28;20184;-68
2021/04/03 09:44:35;;;;;;;11.20;3.05;;;;;;;;;;5080620;28;20177;-68
2021/04/03 09:47:00;;;;;;;11.05;3.78;;;;;;;;;;5091619;28;20169;-68
2021/04/03 09:49:25;;;;;;;16.50;5.03;;;;;;;;;;5089145;28;20221;-68
2021/04/03 09:51:50;;;;;;;12.48;3.72;;;;;;;;;;5083174;28;20631;-68
2021/04/03 09:54:15;;;;;;;11.40;3.30;;;;;;;;;;5088363;28;20192;-68
2021/04/03 09:56:41;;;;;;;19.93;4.20;;;;;;;;;;5084060;28;20235;-68
2021/04/03 09:59:06;;;;;;;14.35;4.32;;;;;;;;;;5089760;28;20433;-67
2021/04/03 10:01:31;;;;;;;13.30;3.25;;;;;;;;;;5082296;28;20273;-69
2021/04/03 10:03:56;;;;;;;21.08;3.80;;;;;;;;;;5084244;28;20164;-68
2021/04/03 10:06:22;;;;;;;11.75;3.40;;;;;;;;;;5083664;28;20173;-68
2021/04/03 10:08:47;;;;;;;17.00;4.05;;;;;;;;;;5084741;28;20194;-68
2021/04/03 10:11:13;;;;;;;14.93;4.70;;;;;;;;;;5086698;28;20188;-67
2021/04/03 10:13:39;;;;;;;20.33;5.05;;;;;;;;;;5080282;28;20700;-68
2021/04/03 10:16:04;;;;;;;12.65;3.85;;;;;;;;;;5080539;28;20235;-68
2021/04/03 10:18:29;;;;;;;14.15;3.65;;;;;;;;;;5094894;28;20917;-68
2021/04/03 10:20:55;;;;;;;21.15;3.92;;;;;;;;;;5089618;28;20208;-68
2021/04/03 10:23:20;;;;;;;11.50;4.68;;;;;;;;;;5092369;28;20183;-68
2021/04/03 10:25:47;;;;;;;12.23;3.30;;;;;;;;;;5094338;28;20185;-68
2021/04/03 10:28:12;;;;;;;12.63;3.53;;;;;;;;;;5086817;28;20251;-68
2021/04/03 10:30:37;;;;;;;14.43;3.85;;;;;;;;;;5080180;28;20284;-68
2021/04/03 10:33:02;;;;;;;9.93;2.97;;;;;;;;;;5088138;28;20173;-68
2021/04/03 10:35:28;;;;;;;10.65;4.53;;;;;;;;;;5090899;28;20208;-68
2021/04/03 10:37:53;;;;;;;13.45;3.60;;;;;;;;;;5085173;28;20225;-68
2021/04/03 10:40:18;;;;;;;13.82;3.47;;;;;;;;;;5074251;28;20594;-70
2021/04/03 10:42:43;;;;;;;10.43;3.17;;;;;;;;;;5081494;28;20180;-68
2021/04/03 10:45:09;;;;;;;12.65;3.58;;;;;;;;;;5070868;28;20169;-69
2021/04/03 10:47:34;;;;;;;16.35;3.50;;;;;;;;;;5081341;28;20168;-67
2021/04/03 10:49:59;;;;;;;14.00;4.18;;;;;;;;;;5082511;28;20689;-69
2021/04/03 10:52:24;;;;;;;11.60;3.30;;;;;;;;;;5079181;28;20195;-69
2021/04/03 10:54:50;;;;;;;13.55;3.50;;;;;;;;;;5081366;28;20176;-68
2021/04/03 10:57:15;;;;;;;14.48;3.75;;;;;;;;;;5085619;28;20759;-68
2021/04/03 10:59:41;;;;;;;10.43;3.70;;;;;;;;;;5085099;28;20654;-69
2021/04/03 11:02:07;;;;;;;12.88;3.10;;;;;;;;;;5080980;28;20172;-69
2021/04/03 11:04:32;;;;;;;11.40;3.63;;;;;;;;;;5078093;28;20270;-67
2021/04/03 11:06:57;;;;;;;11.88;2.88;;;;;;;;;;5087323;28;20204;-68
2021/04/03 11:09:22;;;;;;;12.33;4.00;;;;;;;;;;5077968;28;20185;-68
2021/04/03 11:11:47;;;;;;;12.70;3.45;;;;;;;;;;5086487;28;20448;-68
2021/04/03 11:14:12;;;;;;;15.38;4.40;;;;;;;;;;5089698;28;20247;-69
2021/04/03 11:16:38;;;;;;;8.55;3.40;;;;;;;;;;5080036;28;20197;-68
2021/04/03 11:19:03;;;;;;;14.65;4.20;;;;;;;;;;5084158;28;20559;-69
2021/04/03 11:21:28;;;;;;;15.23;3.90;;;;;;;;;;5079708;28;20220;-68
2021/04/03 11:23:53;;;;;;;15.93;3.72;;;;;;;;;;5077933;28;20522;-69
2021/04/03 11:26:18;;;;;;;11.50;3.65;;;;;;;;;;5080174;28;21138;-68
2021/04/03 11:28:44;;;;;;;11.57;3.78;;;;;;;;;;5084710;28;20195;-67
2021/04/03 11:31:09;;;;;;;11.93;4.20;;;;;;;;;;5086923;28;20500;-68
2021/04/03 11:33:34;;;;;;;18.65;4.43;;;;;;;;;;5081452;28;20324;-69
2021/04/03 11:35:59;;;;;;;10.85;3.92;;;;;;;;;;5087412;28;20340;-68
2021/04/03 11:38:24;;;;;;;8.90;3.43;;;;;;;;;;5081055;28;20238;-68
2021/04/03 11:40:50;;;;;;;12.85;3.72;;;;;;;;;;5079213;28;20453;-68
2021/04/03 11:43:15;;;;;;;11.07;3.20;;;;;;;;;;5075309;28;20222;-68
2021/04/03 11:45:40;;;;;;;10.23;2.70;;;;;;;;;;5079640;28;20184;-68
2021/04/03 11:48:05;;;;;;;12.52;3.95;;;;;;;;;;5086776;28;20712;-67
2021/04/03 11:50:31;;;;;;;16.23;4.47;;;;;;;;;;5083269;28;20196;-68
2021/04/03 11:52:58;;;;;;;11.90;3.28;;;;;;;;;;5090178;28;20215;-67
2021/04/03 11:55:23;;;;;;;16.38;3.78;;;;;;;;;;5084785;28;20234;-68
2021/04/03 11:57:48;;;;;;;10.10;2.83;;;;;;;;;;5083428;28;20172;-68
2021/04/03 12:00:14;;;;;;;10.50;3.25;;;;;;;;;;5088210;28;20219;-68
2021/04/03 12:02:39;;;;;;;17.38;4.45;;;;;;;;;;5077587;28;20165;-67
2021/04/03 12:05:06;;;;;;;12.93;3.45;;;;;;;;;;5088559;28;20183;-68
2021/04/03 12:07:38;;;;;;;12.40;3.20;;;;;;;;;;5079160;28;20181;-69
2021/04/03 12:10:04;;;;;;;9.38;3.08;;;;;;;;;;5077206;28;20645;-69
2021/04/03 12:12:29;;;;;;;7.38;3.35;;;;;;;;;;5085241;28;20178;-68
2021/04/03 12:14:55;;;;;;;12.77;3.38;;;;;;;;;;5083253;28;20251;-69
2021/04/03 12:17:20;;;;;;;10.20;3.05;;;;;;;;;;5090044;28;20203;-69
2021/04/03 12:19:45;;;;;;;12.25;3.70;;;;;;;;;;5075118;28;20208;-69
2021/04/03 12:22:10;;;;;;;11.90;3.53;;;;;;;;;;5074488;28;20177;-69
2021/04/03 12:24:35;;;;;;;9.17;2.97;;;;;;;;;;5081595;28;20906;-69
2021/04/03 12:27:01;;;;;;;13.13;3.90;;;;;;;;;;5088630;28;20424;-69
2021/04/03 12:29:26;;;;;;;14.55;3.42;;;;;;;;;;5079521;28;20481;-68
2021/04/03 12:31:51;;;;;;;11.03;3.60;;;;;;;;;;5076836;28;20200;-69
2021/04/03 12:34:16;;;;;;;11.80;3.20;;;;;;;;;;5082494;28;20533;-69
2021/04/03 12:36:41;;;;;;;11.07;4.13;;;;;;;;;;5076373;28;20465;-69
2021/04/03 12:39:06;;;;;;;13.73;3.87;;;;;;;;;;5081118;28;20799;-70
2021/04/03 12:41:32;;;;;;;11.00;3.80;;;;;;;;;;5088723;28;20422;-69
2021/04/03 12:43:57;;;;;;;12.70;3.75;;;;;;;;;;5076440;28;21041;-67
2021/04/03 12:46:22;;;;;;;12.13;3.27;;;;;;;;;;5076239;28;20185;-67
2021/04/03 12:48:47;;;;;;;8.57;3.07;;;;;;;;;;5084939;28;20433;-68
2021/04/03 12:51:12;;;;;;;11.45;3.75;;;;;;;;;;5078357;28;20501;-68
2021/04/03 12:53:38;;;;;;;10.45;3.15;;;;;;;;;;5080764;28;20180;-68
2021/04/03 12:56:03;;;;;;;13.65;4.20;;;;;;;;;;5082348;28;20216;-68
2021/04/03 12:58:28;;;;;;;12.32;3.53;;;;;;;;;;5075538;28;20234;-68
2021/04/03 13:00:53;;;;;;;14.05;3.28;;;;;;;;;;5076322;28;20283;-68
2021/04/03 13:03:19;;;;;;;12.20;4.05;;;;;;;;;;5074272;28;20197;-67
2021/04/03 13:05:44;;;;;;;9.55;3.58;;;;;;;;;;5078017;28;20177;-68
2021/04/03 13:08:09;;;;;;;9.68;3.55;;;;;;;;;;5082843;28;20242;-69
2021/04/03 13:10:35;;;;;;;10.60;3.20;;;;;;;;;;5082934;28;20195;-68
2021/04/03 13:13:00;;;;;;;11.85;4.10;;;;;;;;;;5078943;28;20180;-68
2021/04/03 13:15:25;;;;;;;10.57;3.20;;;;;;;;;;5084717;28;20183;-68
2021/04/03 13:17:51;;;;;;;17.48;3.65;;;;;;;;;;5081142;28;21182;-67
2021/04/03 13:20:16;;;;;;;14.15;3.22;;;;;;;;;;5080519;28;20236;-67
2021/04/03 13:22:42;;;;;;;9.40;3.08;;;;;;;;;;5081618;28;20168;-68
2021/04/03 13:25:07;;;;;;;7.20;3.00;;;;;;;;;;5083890;28;20188;-69
2021/04/03 13:27:32;;;;;;;10.65;3.08;;;;;;;;;;5086498;28;20169;-67
2021/04/03 13:29:58;;;;;;;11.00;3.58;;;;;;;;;;5080375;28;20287;-68
2021/04/03 13:32:23;;;;;;;11.98;3.20;;;;;;;;;;5076825;28;20175;-68
2021/04/03 13:34:48;;;;;;;15.65;4.00;;;;;;;;;;5078724;28;20226;-69
2021/04/03 13:37:14;;;;;;;10.40;3.20;;;;;;;;;;5079428;28;20220;-69
2021/04/03 13:39:40;;;;;;;10.98;3.20;;;;;;;;;;5082072;28;20597;-69
2021/04/03 13:42:05;;;;;;;16.13;4.20;;;;;;;;;;5076116;28;20714;-68
2021/04/03 13:44:30;;;;;;;9.38;2.85;;;;;;;;;;5075000;28;20263;-68
2021/04/03 13:46:55;;;;;;;13.03;3.67;;;;;;;;;;5082918;28;20177;-68
2021/04/03 13:49:20;;;;;;;9.57;3.80;;;;;;;;;;5077638;28;20425;-68
2021/04/03 13:51:46;;;;;;;11.52;3.50;;;;;;;;;;5079528;28;20451;-68
2021/04/03 13:54:11;;;;;;;11.27;3.87;;;;;;;;;;5074639;28;20608;-69
2021/04/03 13:56:36;;;;;;;14.18;3.95;;;;;;;;;;5084302;28;20535;-69
2021/04/03 13:59:01;;;;;;;10.17;3.97;;;;;;;;;;5078684;28;20173;-69
2021/04/03 14:01:26;;;;;;;15.70;4.03;;;;;;;;;;5086134;28;20456;-68
2021/04/03 14:03:52;;;;;;;10.52;3.53;;;;;;;;;;5079185;28;20201;-68
2021/04/03 14:06:17;;;;;;;12.07;2.97;;;;;;;;;;5082851;28;20176;-68
2021/04/03 14:08:42;;;;;;;9.37;3.27;;;;;;;;;;5075101;28;20426;-69
2021/04/03 14:11:07;;;;;;;13.10;3.78;;;;;;;;;;5082224;28;20563;-68
2021/04/03 14:13:34;;;;;;;11.07;3.15;;;;;;;;;;5085202;28;20191;-69
2021/04/03 14:16:02;;;;;;;12.00;4.07;;;;;;;;;;5081948;28;20197;-69
2021/04/03 14:18:27;;;;;;;10.55;3.95;;;;;;;;;;5083921;28;20181;-68
2021/04/03 14:20:52;;;;;;;11.35;3.85;;;;;;;;;;5080983;28;20192;-68
2021/04/03 14:23:17;;;;;;;12.70;3.35;;;;;;;;;;5082032;28;20176;-69
2021/04/03 14:25:42;;;;;;;10.87;3.80;;;;;;;;;;5082869;28;20176;-68